createdAt,value
2023-08-09T00:02:46.219Z,70.99
2023-08-09T00:05:48.562Z,71.31
2023-08-09T00:08:50.505Z,71.21
2023-08-09T00:11:52.594Z,71.67
2023-08-09T00:14:54.738Z,72.59
2023-08-09T00:17:56.736Z,72.25
2023-08-09T00:20:59.005Z,71.26
2023-08-09T00:24:01.384Z,71.61
2023-08-09T00:27:04.126Z,71.26
2023-08-09T00:30:09.796Z,71.03
2023-08-09T00:33:13.088Z,71.23
2023-08-09T00:36:17.369Z,71.60
2023-08-09T00:39:21.178Z,72.24
2023-08-09T00:42:24.533Z,71.82
2023-08-09T00:45:26.836Z,72.13
2023-08-09T00:48:28.695Z,72.18
2023-08-09T00:51:31.128Z,72.42
2023-08-09T00:54:34.020Z,72.53
2023-08-09T00:57:36.279Z,72.51
2023-08-09T01:00:38.411Z,72.83
2023-08-09T01:03:40.796Z,73.01
2023-08-09T01:06:47.937Z,72.34
2023-08-09T01:10:04.219Z,72.76
2023-08-09T01:13:07.972Z,72.05
2023-08-09T01:16:12.459Z,73.66
2023-08-09T01:19:40.883Z,73.19
2023-08-09T01:22:50.406Z,73.67
2023-08-09T01:25:52.669Z,73.09
2023-08-09T01:28:57.266Z,73.69
2023-08-09T01:31:59.496Z,73.16
2023-08-09T01:35:02.296Z,73.54
2023-08-09T01:38:12.121Z,73.96
2023-08-09T01:41:15.263Z,73.91
2023-08-09T01:44:18.346Z,74.00
2023-08-09T01:47:21.315Z,73.97
2023-08-09T01:50:26.033Z,74.20
2023-08-09T01:53:28.920Z,74.33
2023-08-09T01:56:31.588Z,74.83
2023-08-09T01:59:33.943Z,74.41
2023-08-09T02:02:36.688Z,74.48
2023-08-09T02:05:39.887Z,75.08
2023-08-09T02:08:44.697Z,74.58
2023-08-09T02:11:48.668Z,74.83
2023-08-09T02:14:52.188Z,75.45
2023-08-09T02:17:54.449Z,74.18
2023-08-09T02:20:57.193Z,74.67
2023-08-09T02:23:59.468Z,74.00
2023-08-09T02:27:01.664Z,74.63
2023-08-09T02:30:04.983Z,74.34
2023-08-09T02:33:09.791Z,74.79
2023-08-09T02:36:13.083Z,74.92
2023-08-09T02:39:17.473Z,73.51
2023-08-09T02:42:23.041Z,73.79
2023-08-09T02:45:25.051Z,73.35
2023-08-09T02:48:27.324Z,73.72
2023-08-09T02:51:29.890Z,73.84
2023-08-09T02:54:33.082Z,74.06
2023-08-09T02:57:35.189Z,73.77
2023-08-09T03:00:38.227Z,74.36
2023-08-09T03:03:40.305Z,74.98
2023-08-09T03:06:42.433Z,75.63
2023-08-09T03:09:44.633Z,75.77
2023-08-09T03:12:46.795Z,75.00
2023-08-09T03:15:49.005Z,75.44
2023-08-09T03:18:51.366Z,75.46
2023-08-09T03:21:54.037Z,75.58
2023-08-09T03:24:56.156Z,76.07
2023-08-09T03:27:58.512Z,76.07
2023-08-09T03:31:03.848Z,76.63
2023-08-09T03:34:06.469Z,77.01
2023-08-09T03:37:08.877Z,77.32
2023-08-09T03:40:13.792Z,77.49
2023-08-09T03:43:17.620Z,77.43
2023-08-09T03:46:19.880Z,77.65
2023-08-09T03:49:22.472Z,77.48
2023-08-09T03:52:24.928Z,77.25
2023-08-09T03:55:27.127Z,76.90
2023-08-09T03:58:29.305Z,76.94
2023-08-09T04:01:32.546Z,76.83
2023-08-09T04:04:36.127Z,76.80
2023-08-09T04:07:38.448Z,77.44
2023-08-09T04:10:40.764Z,77.20
2023-08-09T04:13:42.849Z,76.40
2023-08-09T04:16:45.240Z,76.21
2023-08-09T04:19:47.373Z,76.91
2023-08-09T04:22:49.375Z,76.35
2023-08-09T04:25:51.569Z,75.56
2023-08-09T04:28:56.282Z,75.95
2023-08-09T04:31:58.615Z,75.11
2023-08-09T04:35:00.706Z,75.07
2023-08-09T04:38:06.018Z,75.44
2023-08-09T04:41:08.193Z,75.34
2023-08-09T04:44:10.552Z,75.25
2023-08-09T04:47:13.483Z,75.35
2023-08-09T04:50:15.926Z,75.34
2023-08-09T04:53:17.851Z,75.53
2023-08-09T04:56:20.237Z,75.74
2023-08-09T04:59:22.456Z,75.50
2023-08-09T05:02:25.232Z,75.51
2023-08-09T05:05:29.721Z,75.42
2023-08-09T05:08:33.209Z,75.02
2023-08-09T05:11:35.460Z,74.67
2023-08-09T05:14:37.928Z,74.93
2023-08-09T05:17:40.172Z,74.94
2023-08-09T05:20:43.185Z,75.24
2023-08-09T05:23:45.504Z,74.93
2023-08-09T05:26:48.792Z,74.50
2023-08-09T05:29:50.938Z,73.62
2023-08-09T05:32:53.768Z,73.78
2023-08-09T05:35:57.018Z,73.76
2023-08-09T05:39:01.841Z,73.30
2023-08-09T05:42:08.292Z,73.20
2023-08-09T05:45:10.725Z,73.72
2023-08-09T05:48:13.602Z,73.34
2023-08-09T05:51:16.042Z,73.33
2023-08-09T05:54:19.733Z,73.06
2023-08-09T05:57:22.738Z,73.21
2023-08-09T06:00:25.859Z,72.95
2023-08-09T06:03:28.744Z,72.44
2023-08-09T06:06:31.104Z,72.38
2023-08-09T06:09:33.482Z,72.63
2023-08-09T06:12:35.964Z,71.58
2023-08-09T06:15:38.310Z,70.36
2023-08-09T06:18:40.337Z,70.33
2023-08-09T06:21:46.099Z,69.91
2023-08-09T06:24:48.216Z,68.73
2023-08-09T06:27:51.741Z,67.85
2023-08-09T06:30:54.112Z,62.18
2023-08-09T06:33:56.423Z,56.57
2023-08-09T06:36:58.608Z,54.52
2023-08-09T06:40:00.727Z,51.81
2023-08-09T06:43:02.712Z,50.32
2023-08-09T06:46:05.291Z,51.15
2023-08-09T06:49:08.561Z,55.29
2023-08-09T06:52:11.709Z,57.58
2023-08-09T06:55:14.825Z,58.97
2023-08-09T06:58:17.262Z,60.16
2023-08-09T07:01:19.665Z,60.95
2023-08-09T07:04:21.811Z,61.38
2023-08-09T07:07:24.218Z,60.75
2023-08-09T07:10:26.773Z,61.32
2023-08-09T07:13:31.474Z,61.08
2023-08-09T07:16:35.206Z,60.01
2023-08-09T07:19:37.456Z,57.77
2023-08-09T07:22:40.511Z,53.90
2023-08-09T07:25:42.559Z,52.26
2023-08-09T07:28:44.920Z,51.24
2023-08-09T07:31:47.237Z,46.92
2023-08-09T07:34:50.627Z,44.66
2023-08-09T07:37:53.754Z,43.19
2023-08-09T07:40:55.789Z,45.50
2023-08-09T07:43:58.105Z,43.84
2023-08-09T07:47:00.397Z,45.62
2023-08-09T07:50:02.680Z,45.42
2023-08-09T07:53:05.324Z,45.51
2023-08-09T07:56:07.612Z,44.64
2023-08-09T07:59:09.664Z,47.00
2023-08-09T08:02:11.839Z,49.79
2023-08-09T08:05:15.056Z,51.35
2023-08-09T08:08:18.900Z,52.91
2023-08-09T08:11:22.562Z,52.50
2023-08-09T08:14:24.902Z,52.53
2023-08-09T08:17:28.037Z,54.43
2023-08-09T08:20:30.484Z,54.55
2023-08-09T08:23:33.735Z,54.09
2023-08-09T08:26:36.538Z,54.46
2023-08-09T08:29:40.008Z,54.31
2023-08-09T08:32:42.717Z,54.40
2023-08-09T08:35:45.964Z,54.16
2023-08-09T08:38:48.216Z,54.22
2023-08-09T08:41:50.926Z,53.73
2023-08-09T08:44:53.541Z,53.80
2023-08-09T08:47:55.695Z,53.45
2023-08-09T08:50:58.467Z,53.04
2023-08-09T08:54:00.906Z,53.17
2023-08-09T08:57:06.333Z,52.96
2023-08-09T09:03:24.402Z,51.31
2023-08-09T09:06:26.738Z,51.36
2023-08-09T09:09:29.186Z,51.54
2023-08-09T09:12:31.554Z,52.18
2023-08-09T09:15:37.686Z,52.15
2023-08-09T09:18:44.458Z,52.24
2023-08-09T09:21:48.017Z,52.02
2023-08-09T09:24:50.310Z,53.07
2023-08-09T09:27:57.847Z,51.56
2023-08-09T09:31:00.185Z,51.37
2023-08-09T09:34:04.536Z,51.18
2023-08-09T09:37:07.007Z,51.83
2023-08-09T09:40:12.036Z,51.44
2023-08-09T09:43:15.059Z,51.00
2023-08-09T09:46:36.672Z,50.35
2023-08-09T09:49:52.153Z,50.43
2023-08-09T09:52:55.641Z,50.25
2023-08-09T09:55:59.702Z,50.57
2023-08-09T09:59:05.962Z,50.84
2023-08-09T10:02:12.811Z,50.26
2023-08-09T10:05:30.445Z,49.91
2023-08-09T10:08:34.238Z,48.91
2023-08-09T10:11:37.494Z,48.32
2023-08-09T10:14:40.034Z,47.69
2023-08-09T10:17:43.595Z,46.43
2023-08-09T10:20:52.179Z,46.51
2023-08-09T10:24:08.038Z,46.08
2023-08-09T10:27:13.004Z,46.66
2023-08-09T10:30:17.735Z,46.32
2023-08-09T10:33:21.719Z,46.88
2023-08-09T10:36:34.921Z,47.72
2023-08-09T10:39:37.793Z,47.93
2023-08-09T10:42:40.345Z,46.93
2023-08-09T10:45:42.448Z,47.77
2023-08-09T10:48:52.433Z,47.06
2023-08-09T10:51:56.376Z,46.83
2023-08-09T10:55:20.421Z,47.10
2023-08-09T10:58:32.148Z,47.11
2023-08-09T11:01:38.732Z,47.96
2023-08-09T11:04:41.653Z,47.84
2023-08-09T11:07:47.006Z,47.85
2023-08-09T11:10:49.680Z,48.39
2023-08-09T11:13:56.134Z,48.41
2023-08-09T11:17:02.397Z,47.63
2023-08-09T11:20:14.910Z,46.73
2023-08-09T11:23:17.096Z,46.34
2023-08-09T11:26:19.234Z,45.67
2023-08-09T11:29:25.988Z,45.73
2023-08-09T11:32:32.974Z,46.04
2023-08-09T11:35:45.741Z,46.12
2023-08-09T11:38:47.863Z,46.28
2023-08-09T11:41:54.788Z,44.45
2023-08-09T11:44:57.174Z,44.98
2023-08-09T11:47:59.546Z,43.82
2023-08-09T11:51:07.123Z,43.53
2023-08-09T11:54:10.305Z,42.69
2023-08-09T11:57:12.557Z,42.36
2023-08-09T12:00:17.549Z,42.98
2023-08-09T12:03:23.420Z,42.58
2023-08-09T12:06:36.517Z,43.02
2023-08-09T12:09:38.422Z,43.54
2023-08-09T12:12:42.927Z,44.30
2023-08-09T12:15:45.025Z,44.47
2023-08-09T12:18:50.306Z,43.58
2023-08-09T12:21:55.239Z,43.77
2023-08-09T12:24:58.610Z,43.63
2023-08-09T12:28:05.276Z,42.62
2023-08-09T12:31:07.926Z,42.47
2023-08-09T12:34:11.879Z,41.54
2023-08-09T12:37:14.036Z,42.29
2023-08-09T12:40:16.713Z,41.38
2023-08-09T12:43:18.830Z,41.97
2023-08-09T12:46:20.993Z,41.80
2023-08-09T12:49:23.443Z,42.19
2023-08-09T12:52:25.402Z,42.25
2023-08-09T12:55:28.262Z,43.16
2023-08-09T12:58:31.527Z,42.62
2023-08-09T13:01:34.811Z,43.10
2023-08-09T13:04:38.040Z,43.35
2023-08-09T13:07:41.157Z,42.91
2023-08-09T13:10:43.368Z,42.93
2023-08-09T13:13:45.688Z,42.82
2023-08-09T13:16:50.921Z,42.49
2023-08-09T13:19:55.529Z,42.32
2023-08-09T13:22:57.776Z,43.46
2023-08-09T13:26:00.635Z,43.23
2023-08-09T13:29:02.999Z,42.05
2023-08-09T13:32:07.016Z,42.34
2023-08-09T13:35:10.425Z,43.06
2023-08-09T13:38:27.105Z,43.60
2023-08-09T13:41:29.161Z,43.72
2023-08-09T13:44:31.315Z,43.80
2023-08-09T13:47:33.809Z,43.59
2023-08-09T13:50:38.080Z,44.29
2023-08-09T13:53:39.983Z,43.86
2023-08-09T13:56:42.316Z,43.22
2023-08-09T13:59:46.483Z,43.05
2023-08-09T14:02:48.666Z,42.91
2023-08-09T14:05:53.031Z,43.00
2023-08-09T14:08:55.395Z,43.42
2023-08-09T14:11:57.678Z,43.75
2023-08-09T14:14:59.971Z,44.38
2023-08-09T14:18:02.011Z,44.38
2023-08-09T14:21:04.011Z,44.07
2023-08-09T14:24:07.269Z,44.07
2023-08-09T14:27:09.241Z,43.92
2023-08-09T14:30:11.604Z,44.39
2023-08-09T14:33:16.340Z,43.69
2023-08-09T14:36:18.444Z,43.97
2023-08-09T14:39:22.120Z,44.29
2023-08-09T14:42:24.379Z,44.04
2023-08-09T14:45:26.901Z,44.12
2023-08-09T14:48:29.755Z,43.96
2023-08-09T14:51:32.266Z,43.83
2023-08-09T14:54:38.866Z,44.34
2023-08-09T14:57:42.435Z,43.90
2023-08-09T15:00:47.502Z,43.90
2023-08-09T15:03:52.271Z,44.08
2023-08-09T15:06:55.237Z,43.42
2023-08-09T15:09:58.027Z,42.75
2023-08-09T15:13:00.644Z,44.72
2023-08-09T15:16:03.715Z,44.61
2023-08-09T15:19:05.703Z,43.54
2023-08-09T15:22:08.457Z,43.63
2023-08-09T15:25:20.106Z,43.32
2023-08-09T15:28:24.663Z,43.34
2023-08-09T15:31:27.149Z,43.79
2023-08-09T15:34:31.740Z,43.84
2023-08-09T15:37:35.906Z,44.40
2023-08-09T15:40:38.238Z,44.57
2023-08-09T15:43:46.042Z,44.90
2023-08-09T15:46:48.462Z,45.02
2023-08-09T15:49:52.257Z,45.31
2023-08-09T15:52:55.500Z,46.31
2023-08-09T15:55:58.781Z,47.12
2023-08-09T15:59:06.073Z,48.13
2023-08-09T16:02:09.052Z,48.34
2023-08-09T16:05:14.422Z,48.22
2023-08-09T16:08:19.184Z,48.86
2023-08-09T16:11:22.349Z,48.67
2023-08-09T16:14:24.791Z,48.88
2023-08-09T16:17:28.153Z,49.23
2023-08-09T16:20:35.274Z,49.57
2023-08-09T16:23:37.722Z,50.00
2023-08-09T16:26:42.508Z,50.54
2023-08-09T16:29:44.859Z,50.23
2023-08-09T16:32:47.347Z,50.21
2023-08-09T16:35:49.626Z,50.53
2023-08-09T16:38:51.697Z,51.01
2023-08-09T16:41:55.310Z,50.67
2023-08-09T16:44:57.554Z,50.90
2023-08-09T16:47:59.608Z,51.24
2023-08-09T16:51:01.767Z,51.56
2023-08-09T16:54:07.127Z,51.82
2023-08-09T16:57:09.214Z,51.61
2023-08-09T17:00:16.072Z,51.35
2023-08-09T17:03:20.518Z,51.41
2023-08-09T17:06:23.693Z,51.65
2023-08-09T17:09:28.089Z,51.47
2023-08-09T17:12:30.310Z,51.87
2023-08-09T17:15:33.723Z,51.59
2023-08-09T17:18:36.904Z,52.95
2023-08-09T17:21:40.601Z,55.67
2023-08-09T17:24:44.897Z,56.27
2023-08-09T17:27:47.536Z,58.13
2023-08-09T17:30:49.631Z,59.08
2023-08-09T17:33:52.408Z,59.65
2023-08-09T17:36:56.649Z,60.48
2023-08-09T17:39:58.633Z,60.28
2023-08-09T17:43:00.685Z,62.07
2023-08-09T17:46:02.766Z,62.31
2023-08-09T17:49:07.067Z,62.37
2023-08-09T17:52:09.095Z,63.09
2023-08-09T17:55:12.394Z,63.51
2023-08-09T17:58:15.412Z,64.69
2023-08-09T18:01:17.662Z,64.81
2023-08-09T18:04:21.380Z,64.53
2023-08-09T18:07:23.506Z,64.81
2023-08-09T18:10:25.553Z,64.83
2023-08-09T18:13:30.073Z,65.45
2023-08-09T18:16:33.408Z,66.47
2023-08-09T18:19:35.375Z,67.36
2023-08-09T18:22:37.385Z,64.31
2023-08-09T18:25:40.425Z,65.77
2023-08-09T18:28:46.200Z,64.54
2023-08-09T18:31:48.126Z,64.86
2023-08-09T18:34:50.964Z,66.36
2023-08-09T18:37:54.332Z,66.17
2023-08-09T18:40:57.633Z,67.69
2023-08-09T18:44:00.446Z,67.25
2023-08-09T18:47:03.812Z,67.57
2023-08-09T18:50:07.751Z,67.98
2023-08-09T18:53:13.829Z,67.97
2023-08-09T18:56:18.546Z,67.87
2023-08-09T18:59:21.053Z,68.80
2023-08-09T19:02:23.263Z,69.20
2023-08-09T19:05:26.609Z,69.20
2023-08-09T19:08:29.872Z,69.03
2023-08-09T19:11:32.528Z,69.15
2023-08-09T19:14:34.852Z,68.94
2023-08-09T19:17:40.582Z,68.31
2023-08-09T19:20:48.200Z,68.70
2023-08-09T19:23:52.166Z,69.56
2023-08-09T19:26:57.116Z,70.04
2023-08-09T19:30:00.780Z,69.91
2023-08-09T19:33:03.271Z,70.00
2023-08-09T19:36:08.463Z,69.81
2023-08-09T19:39:11.447Z,69.63
2023-08-09T19:42:13.544Z,69.82
2023-08-09T19:45:16.595Z,69.67
2023-08-09T19:48:18.677Z,70.10
2023-08-09T19:51:23.577Z,69.60
2023-08-09T19:54:25.659Z,70.06
2023-08-09T19:57:28.164Z,69.82
2023-08-09T20:00:30.425Z,69.84
2023-08-09T20:03:34.470Z,69.94
2023-08-09T20:06:37.369Z,69.73
2023-08-09T20:09:39.541Z,69.97
2023-08-09T20:12:41.844Z,69.72
2023-08-09T20:15:44.199Z,69.48
2023-08-09T20:18:46.393Z,69.33
2023-08-09T20:21:48.914Z,69.22
2023-08-09T20:24:51.061Z,68.77
2023-08-09T20:27:53.286Z,68.79
2023-08-09T20:30:56.266Z,68.25
2023-08-09T20:33:58.719Z,68.67
2023-08-09T20:37:01.316Z,67.68
2023-08-09T20:40:11.546Z,68.50
2023-08-09T20:43:13.937Z,68.79
2023-08-09T20:46:15.963Z,68.49
2023-08-09T20:49:18.251Z,68.64
2023-08-09T20:52:20.244Z,68.35
2023-08-09T20:55:22.309Z,67.90
2023-08-09T20:58:24.663Z,67.89
2023-08-09T21:01:28.371Z,67.48
2023-08-09T21:04:30.757Z,67.53
2023-08-09T21:07:32.882Z,67.62
2023-08-09T21:10:34.822Z,67.66
2023-08-09T21:13:36.666Z,67.86
2023-08-09T21:16:43.939Z,67.38
2023-08-09T21:19:48.320Z,67.29
2023-08-09T21:22:58.123Z,67.18
2023-08-09T21:26:01.817Z,66.87
2023-08-09T21:29:04.118Z,66.76
2023-08-09T21:32:06.956Z,66.04
2023-08-09T21:35:10.367Z,66.56
2023-08-09T21:38:15.888Z,65.84
2023-08-09T21:41:20.097Z,65.25
2023-08-09T21:44:22.143Z,66.00
2023-08-09T21:47:24.202Z,66.05
2023-08-09T21:50:27.322Z,66.74
2023-08-09T21:53:29.779Z,66.68
2023-08-09T21:56:31.827Z,66.33
2023-08-09T21:59:34.180Z,65.90
2023-08-09T22:02:36.298Z,65.66
2023-08-09T22:05:38.612Z,65.78
2023-08-09T22:08:41.134Z,65.30
2023-08-09T22:11:48.555Z,65.03
2023-08-09T22:15:01.748Z,65.00
2023-08-09T22:18:04.338Z,64.92
2023-08-09T22:21:06.418Z,64.91
2023-08-09T22:24:10.653Z,64.94
2023-08-09T22:27:12.785Z,64.50
2023-08-09T22:30:15.271Z,64.64
2023-08-09T22:33:17.528Z,64.78
2023-08-09T22:36:20.263Z,64.77
2023-08-09T22:39:23.808Z,65.14
2023-08-09T22:42:26.331Z,64.89
2023-08-09T22:45:31.547Z,64.93
2023-08-09T22:48:33.775Z,65.00
2023-08-09T22:51:36.143Z,64.98
2023-08-09T22:54:39.160Z,64.99
2023-08-09T22:57:41.261Z,65.86
2023-08-09T23:00:43.348Z,66.15
2023-08-09T23:03:45.818Z,65.82
2023-08-09T23:06:49.151Z,66.21
2023-08-09T23:09:50.992Z,66.41
2023-08-09T23:12:53.197Z,66.43
2023-08-09T23:15:56.426Z,66.86
2023-08-09T23:18:58.827Z,66.89
2023-08-09T23:22:01.165Z,66.60
2023-08-09T23:25:04.059Z,66.83
2023-08-09T23:28:06.372Z,66.95
2023-08-09T23:31:08.708Z,67.10
2023-08-09T23:34:13.098Z,66.88
2023-08-09T23:37:15.808Z,67.43
2023-08-09T23:40:19.123Z,67.06
2023-08-09T23:43:21.909Z,67.44
2023-08-09T23:46:23.846Z,67.91
2023-08-09T23:49:26.053Z,68.50
2023-08-09T23:52:30.559Z,69.38
2023-08-09T23:55:33.274Z,69.55
2023-08-09T23:58:36.036Z,70.22
